createdAt,value
2022-07-31T00:00:22.488Z,24.20
2022-07-31T00:02:48.875Z,24.24
2022-07-31T00:05:15.331Z,24.24
2022-07-31T00:07:41.666Z,24.20
2022-07-31T00:10:09.301Z,24.15
2022-07-31T00:12:35.796Z,24.06
2022-07-31T00:15:05.289Z,23.95
2022-07-31T00:17:32.142Z,23.80
2022-07-31T00:19:58.482Z,23.62
2022-07-31T00:22:24.837Z,23.60
2022-07-31T00:24:51.210Z,23.69
2022-07-31T00:27:17.547Z,23.68
2022-07-31T00:29:43.895Z,23.68
2022-07-31T00:32:11.387Z,23.67
2022-07-31T00:34:37.708Z,23.53
2022-07-31T00:37:04.350Z,23.42
2022-07-31T00:39:32.438Z,23.49
2022-07-31T00:41:58.766Z,23.45
2022-07-31T00:44:25.849Z,23.43
2022-07-31T00:46:52.608Z,23.49
2022-07-31T00:49:19.635Z,23.55
2022-07-31T00:51:46.303Z,23.37
2022-07-31T00:54:18.673Z,23.19
2022-07-31T00:56:48.860Z,23.19
2022-07-31T00:59:15.249Z,23.16
2022-07-31T01:01:41.604Z,23.26
2022-07-31T01:04:08.105Z,23.14
2022-07-31T01:06:42.745Z,23.08
2022-07-31T01:09:09.372Z,23.09
2022-07-31T01:11:47.807Z,23.14
2022-07-31T01:14:19.604Z,23.10
2022-07-31T01:16:49.218Z,23.03
2022-07-31T01:19:37.976Z,23.13
2022-07-31T01:22:36.689Z,23.05
2022-07-31T01:25:30.906Z,23.10
2022-07-31T01:28:09.464Z,23.14
2022-07-31T01:30:43.020Z,23.08
2022-07-31T01:33:15.091Z,22.98
2022-07-31T01:35:45.740Z,22.95
2022-07-31T01:38:22.128Z,22.91
2022-07-31T01:40:54.448Z,22.97
2022-07-31T01:43:28.374Z,22.98
2022-07-31T01:45:57.669Z,23.01
2022-07-31T01:48:25.482Z,22.95
2022-07-31T01:50:54.120Z,22.82
2022-07-31T01:53:22.677Z,22.81
2022-07-31T01:56:02.004Z,22.66
2022-07-31T01:58:34.774Z,22.67
2022-07-31T02:01:03.641Z,22.63
2022-07-31T02:03:44.297Z,22.63
2022-07-31T02:06:14.717Z,22.63
2022-07-31T02:08:45.064Z,22.69
2022-07-31T02:11:12.263Z,22.71
2022-07-31T02:13:38.632Z,22.72
2022-07-31T02:16:06.048Z,22.61
2022-07-31T02:18:34.016Z,22.64
2022-07-31T02:21:00.364Z,22.70
2022-07-31T02:23:26.721Z,22.77
2022-07-31T02:25:53.291Z,22.65
2022-07-31T02:28:22.985Z,22.71
2022-07-31T02:30:51.642Z,22.69
2022-07-31T02:33:21.488Z,22.72
2022-07-31T02:35:55.456Z,22.72
2022-07-31T02:38:26.027Z,22.74
2022-07-31T02:40:56.523Z,22.74
2022-07-31T02:43:24.813Z,22.72
2022-07-31T02:45:51.797Z,22.79
2022-07-31T02:48:18.382Z,22.63
2022-07-31T02:50:45.278Z,22.76
2022-07-31T02:53:12.037Z,22.73
2022-07-31T02:55:40.041Z,22.70
2022-07-31T02:58:06.438Z,22.79
2022-07-31T03:00:32.869Z,22.79
2022-07-31T03:02:59.253Z,22.71
2022-07-31T03:05:25.655Z,22.73
2022-07-31T03:07:52.045Z,22.77
2022-07-31T03:10:18.822Z,22.72
2022-07-31T03:12:51.724Z,22.75
2022-07-31T03:15:20.660Z,22.45
2022-07-31T03:17:49.049Z,22.24
2022-07-31T03:20:16.247Z,22.17
2022-07-31T03:22:44.232Z,22.20
2022-07-31T03:25:11.025Z,22.28
2022-07-31T03:27:52.419Z,22.41
2022-07-31T03:30:25.394Z,22.35
2022-07-31T03:32:56.045Z,22.29
2022-07-31T03:35:23.955Z,22.36
2022-07-31T03:37:50.395Z,22.46
2022-07-31T03:40:16.747Z,22.38
2022-07-31T03:42:43.642Z,22.53
2022-07-31T03:45:12.285Z,22.51
2022-07-31T03:47:38.694Z,22.48
2022-07-31T03:50:06.529Z,22.40
2022-07-31T03:52:33.464Z,22.35
2022-07-31T03:54:59.891Z,22.42
2022-07-31T03:57:28.718Z,22.34
2022-07-31T04:00:00.244Z,22.36
2022-07-31T04:02:28.098Z,22.50
2022-07-31T04:04:55.163Z,22.47
2022-07-31T04:07:21.498Z,22.53
2022-07-31T04:09:47.879Z,22.47
2022-07-31T04:12:14.263Z,22.34
2022-07-31T04:14:40.756Z,22.14
2022-07-31T04:17:07.115Z,22.03
2022-07-31T04:19:33.489Z,21.95
2022-07-31T04:22:00.787Z,21.89
2022-07-31T04:24:27.451Z,22.09
2022-07-31T04:26:57.620Z,22.14
2022-07-31T04:29:24.621Z,22.11
2022-07-31T04:31:51.073Z,22.06
2022-07-31T04:34:17.611Z,22.00
2022-07-31T04:36:43.955Z,22.08
2022-07-31T04:39:10.306Z,22.09
2022-07-31T04:41:36.670Z,22.17
2022-07-31T04:44:03.077Z,22.26
2022-07-31T04:46:29.392Z,22.24
2022-07-31T04:48:55.892Z,22.28
2022-07-31T04:51:23.867Z,22.28
2022-07-31T04:53:51.186Z,22.24
2022-07-31T04:56:35.831Z,22.11
2022-07-31T04:59:05.675Z,22.06
2022-07-31T05:01:32.967Z,22.10
2022-07-31T05:03:59.875Z,22.08
2022-07-31T05:06:34.401Z,22.06
2022-07-31T05:09:06.757Z,22.04
2022-07-31T05:11:35.804Z,22.07
2022-07-31T05:14:04.470Z,21.96
2022-07-31T05:16:31.904Z,21.92
2022-07-31T05:18:59.171Z,21.93
2022-07-31T05:21:30.444Z,21.93
2022-07-31T05:23:57.838Z,21.97
2022-07-31T05:26:25.151Z,22.05
2022-07-31T05:28:58.114Z,22.20
2022-07-31T05:31:24.849Z,22.06
2022-07-31T05:33:51.619Z,22.07
2022-07-31T05:36:19.118Z,22.14
2022-07-31T05:38:45.739Z,22.07
2022-07-31T05:41:12.567Z,22.12
2022-07-31T05:43:39.343Z,22.17
2022-07-31T05:46:06.145Z,22.27
2022-07-31T05:48:33.118Z,22.21
2022-07-31T05:51:04.928Z,22.30
2022-07-31T05:53:31.886Z,22.32
2022-07-31T05:55:58.231Z,22.36
2022-07-31T05:58:24.582Z,22.55
2022-07-31T06:00:50.946Z,22.52
2022-07-31T06:03:23.372Z,22.61
2022-07-31T06:05:50.876Z,22.64
2022-07-31T06:08:17.537Z,22.72
2022-07-31T06:10:44.131Z,22.66
2022-07-31T06:13:11.845Z,22.62
2022-07-31T06:15:38.239Z,22.62
2022-07-31T06:18:08.766Z,22.80
2022-07-31T06:20:35.241Z,22.95
2022-07-31T06:23:03.660Z,23.00
2022-07-31T06:25:46.477Z,23.16
2022-07-31T06:28:15.375Z,23.16
2022-07-31T06:30:43.884Z,23.03
2022-07-31T06:33:16.627Z,22.86
2022-07-31T06:35:56.633Z,22.95
2022-07-31T06:38:24.293Z,22.61
2022-07-31T06:40:51.521Z,22.75
2022-07-31T06:43:17.869Z,22.99
2022-07-31T06:45:52.025Z,23.02
2022-07-31T06:48:18.906Z,23.00
2022-07-31T06:50:45.367Z,23.01
2022-07-31T06:53:11.699Z,22.98
2022-07-31T06:55:38.026Z,22.68
2022-07-31T06:58:10.767Z,22.72
2022-07-31T07:00:37.114Z,22.50
2022-07-31T07:03:03.463Z,22.61
2022-07-31T07:05:29.925Z,22.47
2022-07-31T07:07:56.276Z,22.31
2022-07-31T07:10:22.633Z,22.18
2022-07-31T07:12:49.028Z,22.48
2022-07-31T07:15:15.479Z,22.75
2022-07-31T07:17:41.971Z,22.93
2022-07-31T07:20:08.801Z,23.05
2022-07-31T07:22:35.167Z,23.14
2022-07-31T07:25:01.698Z,22.97
2022-07-31T07:27:28.099Z,23.09
2022-07-31T07:29:54.437Z,23.16
2022-07-31T07:32:20.761Z,22.99
2022-07-31T07:34:47.235Z,23.15
2022-07-31T07:37:13.562Z,23.10
2022-07-31T07:39:39.881Z,23.26
2022-07-31T07:42:06.744Z,23.44
2022-07-31T07:44:33.273Z,23.35
2022-07-31T07:46:59.816Z,23.36
2022-07-31T07:49:26.382Z,23.44
2022-07-31T07:52:09.666Z,23.63
2022-07-31T07:54:36.014Z,23.48
2022-07-31T07:57:02.358Z,23.63
2022-07-31T07:59:28.714Z,23.67
2022-07-31T08:01:55.049Z,23.62
2022-07-31T08:04:21.410Z,23.75
2022-07-31T08:06:47.736Z,23.67
2022-07-31T08:09:14.071Z,23.53
2022-07-31T08:11:40.428Z,23.57
2022-07-31T08:14:06.772Z,23.57
2022-07-31T08:16:33.192Z,23.62
2022-07-31T08:18:59.672Z,23.74
2022-07-31T08:21:26.539Z,23.80
2022-07-31T08:23:52.891Z,23.81
2022-07-31T08:26:19.232Z,24.01
2022-07-31T08:28:49.866Z,24.04
2022-07-31T08:31:18.108Z,24.11
2022-07-31T08:33:44.425Z,24.25
2022-07-31T08:36:10.843Z,24.41
2022-07-31T08:38:38.378Z,24.56
2022-07-31T08:41:05.179Z,24.71
2022-07-31T08:44:03.139Z,24.67
2022-07-31T08:46:19.253Z,24.54
2022-07-31T08:48:46.232Z,24.71
2022-07-31T08:51:13.555Z,24.88
2022-07-31T08:53:42.457Z,25.08
2022-07-31T08:56:09.475Z,24.75
2022-07-31T08:58:39.274Z,24.73
2022-07-31T09:01:07.957Z,24.82
2022-07-31T09:03:35.966Z,24.87
2022-07-31T09:06:02.485Z,24.95
2022-07-31T09:08:35.072Z,25.00
2022-07-31T09:11:10.405Z,24.99
2022-07-31T09:13:37.532Z,25.03
2022-07-31T09:16:04.320Z,24.99
2022-07-31T09:18:30.732Z,25.22
2022-07-31T09:21:05.538Z,25.31
2022-07-31T09:23:32.134Z,25.49
2022-07-31T09:26:01.770Z,25.56
2022-07-31T09:28:36.209Z,25.79
2022-07-31T09:31:04.239Z,25.68
2022-07-31T09:33:31.678Z,25.60
2022-07-31T09:35:59.832Z,25.62
2022-07-31T09:38:34.951Z,25.77
2022-07-31T09:41:56.499Z,25.81
2022-07-31T09:44:01.131Z,25.85
2022-07-31T09:46:38.125Z,25.88
2022-07-31T09:49:04.574Z,26.02
2022-07-31T09:51:43.008Z,26.21
2022-07-31T09:54:21.529Z,26.39
2022-07-31T09:56:49.717Z,26.33
2022-07-31T09:59:16.793Z,26.27
2022-07-31T10:01:48.853Z,26.07
2022-07-31T10:04:23.048Z,26.28
2022-07-31T10:06:51.801Z,26.29
2022-07-31T10:09:20.648Z,26.16
2022-07-31T10:11:49.615Z,26.29
2022-07-31T10:14:28.173Z,26.33
2022-07-31T10:16:57.001Z,26.58
2022-07-31T10:19:24.645Z,26.25
2022-07-31T10:21:56.453Z,26.53
2022-07-31T10:24:27.947Z,26.75
2022-07-31T10:27:01.104Z,26.97
2022-07-31T10:29:32.420Z,26.74
2022-07-31T10:31:59.863Z,27.01
2022-07-31T10:34:26.776Z,27.12
2022-07-31T10:36:58.217Z,27.17
2022-07-31T10:39:35.831Z,27.00
2022-07-31T10:42:23.304Z,26.83
2022-07-31T10:45:04.443Z,26.85
2022-07-31T10:47:30.936Z,26.90
2022-07-31T10:49:57.386Z,27.09
2022-07-31T10:52:32.878Z,27.32
2022-07-31T10:55:01.569Z,27.50
2022-07-31T10:57:30.478Z,27.68
2022-07-31T11:00:07.599Z,27.39
2022-07-31T11:02:35.343Z,26.92
2022-07-31T11:05:09.687Z,27.23
2022-07-31T11:07:36.250Z,27.46
2022-07-31T11:10:21.982Z,27.71
2022-07-31T11:13:08.710Z,27.59
2022-07-31T11:15:37.501Z,27.73
2022-07-31T11:18:26.716Z,27.72
2022-07-31T11:21:17.431Z,27.97
2022-07-31T11:23:56.193Z,27.76
2022-07-31T11:26:32.976Z,27.63
2022-07-31T11:29:59.966Z,27.83
2022-07-31T11:31:48.908Z,28.01
2022-07-31T11:34:15.259Z,27.89
2022-07-31T11:36:44.021Z,27.73
2022-07-31T11:39:12.741Z,27.47
2022-07-31T11:41:44.604Z,27.69
2022-07-31T11:44:12.382Z,27.71
2022-07-31T11:46:39.031Z,27.69
2022-07-31T11:49:05.795Z,27.78
2022-07-31T11:51:32.293Z,27.90
2022-07-31T11:53:59.113Z,27.88
2022-07-31T11:56:27.181Z,27.80
2022-07-31T11:58:56.826Z,27.67
2022-07-31T12:01:29.261Z,27.70
2022-07-31T12:03:57.489Z,27.84
2022-07-31T12:06:36.425Z,27.83
2022-07-31T12:09:03.145Z,27.96
2022-07-31T12:11:29.556Z,27.96
2022-07-31T12:13:55.978Z,27.84
2022-07-31T12:16:22.369Z,27.97
2022-07-31T12:18:52.173Z,27.99
2022-07-31T12:21:19.701Z,28.00
2022-07-31T12:23:47.434Z,28.21
2022-07-31T12:26:23.341Z,28.38
2022-07-31T12:29:16.079Z,28.48
2022-07-31T12:31:55.110Z,28.43
2022-07-31T12:34:38.750Z,28.22
2022-07-31T12:37:06.659Z,28.30
2022-07-31T12:39:59.253Z,28.34
2022-07-31T12:42:33.180Z,28.56
2022-07-31T12:45:19.491Z,28.79
2022-07-31T12:47:51.134Z,28.98
2022-07-31T12:50:18.776Z,29.06
2022-07-31T12:52:45.343Z,28.96
2022-07-31T12:55:11.715Z,29.03
2022-07-31T12:57:41.804Z,28.90
2022-07-31T13:00:24.962Z,28.61
2022-07-31T13:02:53.364Z,28.77
2022-07-31T13:05:21.154Z,28.88
2022-07-31T13:07:47.907Z,29.14
2022-07-31T13:10:23.906Z,29.18
2022-07-31T13:12:52.608Z,29.16
2022-07-31T13:15:22.725Z,29.36
2022-07-31T13:17:50.366Z,29.55
2022-07-31T13:20:17.287Z,29.37
2022-07-31T13:22:43.813Z,29.01
2022-07-31T13:25:10.272Z,29.26
2022-07-31T13:27:36.671Z,29.45
2022-07-31T13:30:03.664Z,29.43
2022-07-31T13:32:31.628Z,29.39
2022-07-31T13:35:28.023Z,28.96
2022-07-31T13:37:46.311Z,28.65
2022-07-31T13:40:12.845Z,29.06
2022-07-31T13:42:39.191Z,29.14
2022-07-31T13:45:08.314Z,29.17
2022-07-31T13:47:50.651Z,29.11
2022-07-31T13:50:17.538Z,29.50
2022-07-31T13:52:44.149Z,29.61
2022-07-31T13:55:10.747Z,29.64
2022-07-31T13:57:37.076Z,29.59
2022-07-31T14:00:03.806Z,29.74
2022-07-31T14:02:30.263Z,29.57
2022-07-31T14:04:56.693Z,29.70
2022-07-31T14:07:23.653Z,29.73
2022-07-31T14:10:10.042Z,30.03
2022-07-31T14:12:36.398Z,30.03
2022-07-31T14:15:04.299Z,30.13
2022-07-31T14:17:30.832Z,29.95
2022-07-31T14:19:57.164Z,30.01
2022-07-31T14:22:23.675Z,30.02
2022-07-31T14:24:51.476Z,30.09
2022-07-31T14:27:18.058Z,30.24
2022-07-31T14:29:44.720Z,30.14
2022-07-31T14:32:11.103Z,30.11
2022-07-31T14:34:37.511Z,29.84
2022-07-31T14:37:04.946Z,29.92
2022-07-31T14:39:31.544Z,29.74
2022-07-31T14:41:57.993Z,30.00
2022-07-31T14:44:28.704Z,30.31
2022-07-31T14:46:55.702Z,30.45
2022-07-31T14:49:22.150Z,30.29
2022-07-31T14:51:48.524Z,30.53
2022-07-31T14:54:14.861Z,30.53
2022-07-31T14:57:00.308Z,30.51
2022-07-31T14:59:31.198Z,30.55
2022-07-31T15:01:58.557Z,30.37
2022-07-31T15:04:24.961Z,30.27
2022-07-31T15:07:03.101Z,30.29
2022-07-31T15:09:38.239Z,30.30
2022-07-31T15:12:05.088Z,30.49
2022-07-31T15:14:31.434Z,30.75
2022-07-31T15:16:57.990Z,31.39
2022-07-31T15:19:24.335Z,31.49
2022-07-31T15:22:09.870Z,31.37
2022-07-31T15:24:39.281Z,31.39
2022-07-31T15:27:08.795Z,32.08
2022-07-31T15:30:04.939Z,32.40
2022-07-31T15:32:21.465Z,32.15
2022-07-31T15:34:47.805Z,31.36
2022-07-31T15:37:19.842Z,31.95
2022-07-31T15:40:01.572Z,31.96
2022-07-31T15:42:31.484Z,32.27
2022-07-31T15:44:57.867Z,31.61
2022-07-31T15:47:24.289Z,30.95
2022-07-31T15:49:50.665Z,30.85
2022-07-31T15:52:19.392Z,30.96
2022-07-31T15:54:46.751Z,31.18
2022-07-31T15:57:13.442Z,30.97
2022-07-31T15:59:39.917Z,30.64
2022-07-31T16:02:07.185Z,30.66
2022-07-31T16:04:34.661Z,30.65
2022-07-31T16:08:27.217Z,30.61
2022-07-31T16:10:02.558Z,30.45
2022-07-31T16:12:35.345Z,30.50
2022-07-31T16:15:02.463Z,30.56
2022-07-31T16:17:37.873Z,30.61
2022-07-31T16:20:13.269Z,30.79
2022-07-31T16:22:55.421Z,30.54
2022-07-31T16:25:22.886Z,30.73
2022-07-31T16:27:49.443Z,30.71
2022-07-31T16:30:16.856Z,30.88
2022-07-31T16:32:43.409Z,30.86
2022-07-31T16:35:11.588Z,30.67
2022-07-31T16:37:50.461Z,30.89
2022-07-31T16:40:29.040Z,30.62
2022-07-31T16:42:59.406Z,30.86
2022-07-31T16:45:25.836Z,30.88
2022-07-31T16:47:52.465Z,30.78
2022-07-31T16:50:19.326Z,31.16
2022-07-31T16:52:45.860Z,31.52
2022-07-31T16:55:12.212Z,31.44
2022-07-31T16:57:38.562Z,31.48
2022-07-31T17:00:07.217Z,31.47
2022-07-31T17:02:33.650Z,31.66
2022-07-31T17:05:00.265Z,31.72
2022-07-31T17:07:26.696Z,31.90
2022-07-31T17:09:53.039Z,32.14
2022-07-31T17:12:20.361Z,31.92
2022-07-31T17:14:48.434Z,31.68
2022-07-31T17:17:15.504Z,31.96
2022-07-31T17:19:46.719Z,31.91
2022-07-31T17:22:17.878Z,31.57
2022-07-31T17:24:50.530Z,31.22
2022-07-31T17:27:18.353Z,31.32
2022-07-31T17:29:44.793Z,31.54
2022-07-31T17:32:11.582Z,31.80
2022-07-31T17:34:38.536Z,32.00
2022-07-31T17:37:05.241Z,32.03
2022-07-31T17:39:32.043Z,32.47
2022-07-31T17:41:59.246Z,32.57
2022-07-31T17:44:26.027Z,32.33
2022-07-31T17:46:52.409Z,32.31
2022-07-31T17:49:20.344Z,32.38
2022-07-31T17:51:57.883Z,32.31
2022-07-31T17:54:34.757Z,32.42
2022-07-31T17:57:01.354Z,32.16
2022-07-31T17:59:28.005Z,32.08
2022-07-31T18:02:03.001Z,31.32
2022-07-31T18:04:32.186Z,31.07
2022-07-31T18:07:00.150Z,31.27
2022-07-31T18:09:27.668Z,30.99
2022-07-31T18:11:54.652Z,30.91
2022-07-31T18:14:24.507Z,30.50
2022-07-31T18:16:51.895Z,30.48
2022-07-31T18:19:18.336Z,30.70
2022-07-31T18:21:44.681Z,30.65
2022-07-31T18:24:11.030Z,30.56
2022-07-31T18:26:37.508Z,30.45
2022-07-31T18:29:04.627Z,30.80
2022-07-31T18:31:34.409Z,30.98
2022-07-31T18:34:04.153Z,30.62
2022-07-31T18:36:32.181Z,29.98
2022-07-31T18:38:58.874Z,30.19
2022-07-31T18:41:25.236Z,29.82
2022-07-31T18:43:51.603Z,29.73
2022-07-31T18:46:19.845Z,29.76
2022-07-31T18:48:46.203Z,29.91
2022-07-31T18:51:12.608Z,29.81
2022-07-31T18:53:39.086Z,29.91
2022-07-31T18:56:05.453Z,29.87
2022-07-31T18:58:31.876Z,29.88
2022-07-31T19:00:58.271Z,29.88
2022-07-31T19:03:26.206Z,29.75
2022-07-31T19:05:53.306Z,29.79
2022-07-31T19:08:21.004Z,29.61
2022-07-31T19:10:53.480Z,29.52
2022-07-31T19:13:20.803Z,29.68
2022-07-31T19:15:52.772Z,29.65
2022-07-31T19:18:24.513Z,29.73
2022-07-31T19:21:19.143Z,29.90
2022-07-31T19:23:43.063Z,29.99
2022-07-31T19:26:09.537Z,30.04
2022-07-31T19:28:36.811Z,30.01
2022-07-31T19:31:03.242Z,29.89
2022-07-31T19:33:29.593Z,29.69
2022-07-31T19:36:01.243Z,29.72
2022-07-31T19:38:28.505Z,29.62
2022-07-31T19:40:55.024Z,29.74
2022-07-31T19:43:21.438Z,29.81
2022-07-31T19:45:58.631Z,29.84
2022-07-31T19:48:36.315Z,29.84
2022-07-31T19:51:02.731Z,29.92
2022-07-31T19:53:29.118Z,29.79
2022-07-31T19:55:55.545Z,29.67
2022-07-31T19:58:22.913Z,29.64
2022-07-31T20:00:49.398Z,29.70
2022-07-31T20:03:15.795Z,29.70
2022-07-31T20:05:42.393Z,29.75
2022-07-31T20:08:10.151Z,29.80
2022-07-31T20:10:36.587Z,29.89
2022-07-31T20:13:03.123Z,29.88
2022-07-31T20:15:52.429Z,29.88
2022-07-31T20:18:23.605Z,29.73
2022-07-31T20:20:58.741Z,29.73
2022-07-31T20:23:25.912Z,29.66
2022-07-31T20:25:52.315Z,29.63
2022-07-31T20:28:18.845Z,29.70
2022-07-31T20:30:45.229Z,29.66
2022-07-31T20:33:13.457Z,29.57
2022-07-31T20:35:48.575Z,29.53
2022-07-31T20:38:20.668Z,29.50
2022-07-31T20:40:54.694Z,29.42
2022-07-31T20:43:29.440Z,29.45
2022-07-31T20:45:58.005Z,29.52
2022-07-31T20:48:31.918Z,29.48
2022-07-31T20:51:00.345Z,29.34
2022-07-31T20:53:27.321Z,29.30
2022-07-31T20:55:54.005Z,29.22
2022-07-31T20:58:21.878Z,29.18
2022-07-31T21:00:49.790Z,29.11
2022-07-31T21:03:17.216Z,28.96
2022-07-31T21:05:44.332Z,29.04
2022-07-31T21:08:11.127Z,29.08
2022-07-31T21:10:38.400Z,28.99
2022-07-31T21:13:04.760Z,28.96
2022-07-31T21:15:42.835Z,28.89
2022-07-31T21:18:15.467Z,28.97
2022-07-31T21:20:51.040Z,28.71
2022-07-31T21:23:20.897Z,28.72
2022-07-31T21:25:47.466Z,28.72
2022-07-31T21:28:14.037Z,28.60
2022-07-31T21:30:41.035Z,28.57
2022-07-31T21:33:08.590Z,28.45
2022-07-31T21:35:36.973Z,28.46
2022-07-31T21:38:04.692Z,28.43
2022-07-31T21:40:33.782Z,28.40
2022-07-31T21:43:00.432Z,28.37
2022-07-31T21:45:29.080Z,28.02
2022-07-31T21:48:13.990Z,28.08
2022-07-31T21:50:46.104Z,28.17
2022-07-31T21:53:13.335Z,28.06
2022-07-31T21:55:40.191Z,28.04
2022-07-31T21:58:07.041Z,28.02
2022-07-31T22:00:37.035Z,28.02
2022-07-31T22:03:04.174Z,28.06
2022-07-31T22:05:49.931Z,28.00
2022-07-31T22:08:16.612Z,27.94
2022-07-31T22:10:43.086Z,27.85
2022-07-31T22:13:09.595Z,27.82
2022-07-31T22:15:58.906Z,27.77
2022-07-31T22:18:22.751Z,27.65
2022-07-31T22:20:53.074Z,27.22
2022-07-31T22:23:19.633Z,27.02
2022-07-31T22:25:48.238Z,27.13
2022-07-31T22:28:16.690Z,27.10
2022-07-31T22:30:43.232Z,27.14
2022-07-31T22:33:09.729Z,27.14
2022-07-31T22:35:36.289Z,27.15
2022-07-31T22:38:02.733Z,27.17
2022-07-31T22:40:29.169Z,27.15
2022-07-31T22:42:56.089Z,27.17
2022-07-31T22:45:23.109Z,27.03
2022-07-31T22:47:49.912Z,27.04
2022-07-31T22:50:16.604Z,27.01
2022-07-31T22:52:43.457Z,27.08
2022-07-31T22:55:11.558Z,26.99
2022-07-31T22:57:38.349Z,27.10
2022-07-31T23:00:07.954Z,27.15
2022-07-31T23:02:34.508Z,27.16
2022-07-31T23:05:00.838Z,27.14
2022-07-31T23:07:27.214Z,27.09
2022-07-31T23:09:53.565Z,27.06
2022-07-31T23:12:19.925Z,27.07
2022-07-31T23:14:46.243Z,26.95
2022-07-31T23:17:22.480Z,26.83
2022-07-31T23:19:53.754Z,26.86
2022-07-31T23:22:30.858Z,26.83
2022-07-31T23:25:08.628Z,26.69
2022-07-31T23:27:35.486Z,26.65
2022-07-31T23:30:01.839Z,26.59
2022-07-31T23:32:28.319Z,26.55
2022-07-31T23:34:54.902Z,26.55
2022-07-31T23:37:21.504Z,26.56
2022-07-31T23:39:47.840Z,26.51
2022-07-31T23:42:32.622Z,26.50
2022-07-31T23:44:58.984Z,26.49
2022-07-31T23:47:44.682Z,26.22
2022-07-31T23:50:11.705Z,26.02
2022-07-31T23:52:38.081Z,26.10
2022-07-31T23:55:04.757Z,26.06
2022-07-31T23:57:34.349Z,25.85
